sensor_id;sensor_type;location;lat;lon;timestamp;P1;durP1;ratioP1;P2;durP2;ratioP2
14603;SDS011;7388;51.078;13.740;2023-08-07T00:00:56;3.20;;;2.90;;
14603;SDS011;7388;51.078;13.740;2023-08-07T00:03:21;4.60;;;3.30;;
14603;SDS011;7388;51.078;13.740;2023-08-07T00:05:47;3.90;;;2.87;;
14603;SDS011;7388;51.078;13.740;2023-08-07T00:08:13;4.80;;;3.40;;
14603;SDS011;7388;51.078;13.740;2023-08-07T00:10:39;4.20;;;3.57;;
14603;SDS011;7388;51.078;13.740;2023-08-07T00:13:06;3.43;;;2.63;;
14603;SDS011;7388;51.078;13.740;2023-08-07T00:15:31;3.30;;;3.00;;
14603;SDS011;7388;51.078;13.740;2023-08-07T00:18:00;3.13;;;2.73;;
14603;SDS011;7388;51.078;13.740;2023-08-07T00:20:26;4.90;;;4.07;;
14603;SDS011;7388;51.078;13.740;2023-08-07T00:22:52;3.97;;;3.30;;
14603;SDS011;7388;51.078;13.740;2023-08-07T00:25:18;4.87;;;3.50;;
14603;SDS011;7388;51.078;13.740;2023-08-07T00:27:44;3.20;;;2.90;;
14603;SDS011;7388;51.078;13.740;2023-08-07T00:30:10;6.90;;;3.03;;
14603;SDS011;7388;51.078;13.740;2023-08-07T00:32:36;3.80;;;3.15;;
14603;SDS011;7388;51.078;13.740;2023-08-07T00:35:02;4.83;;;3.33;;
14603;SDS011;7388;51.078;13.740;2023-08-07T00:37:29;4.97;;;2.40;;
14603;SDS011;7388;51.078;13.740;2023-08-07T00:39:55;4.33;;;2.57;;
14603;SDS011;7388;51.078;13.740;2023-08-07T00:42:21;5.43;;;2.63;;
14603;SDS011;7388;51.078;13.740;2023-08-07T00:44:47;4.83;;;3.30;;
14603;SDS011;7388;51.078;13.740;2023-08-07T00:47:13;5.50;;;2.63;;
14603;SDS011;7388;51.078;13.740;2023-08-07T00:49:38;3.70;;;2.90;;
14603;SDS011;7388;51.078;13.740;2023-08-07T00:52:05;4.15;;;3.30;;
14603;SDS011;7388;51.078;13.740;2023-08-07T00:54:31;3.70;;;3.27;;
14603;SDS011;7388;51.078;13.740;2023-08-07T00:57:05;4.40;;;3.77;;
14603;SDS011;7388;51.078;13.740;2023-08-07T00:59:40;5.18;;;3.10;;
14603;SDS011;7388;51.078;13.740;2023-08-07T01:02:06;3.72;;;3.33;;
14603;SDS011;7388;51.078;13.740;2023-08-07T01:04:33;3.50;;;3.20;;
14603;SDS011;7388;51.078;13.740;2023-08-07T01:06:59;4.63;;;4.17;;
14603;SDS011;7388;51.078;13.740;2023-08-07T01:09:25;3.33;;;2.97;;
14603;SDS011;7388;51.078;13.740;2023-08-07T01:12:02;4.00;;;3.60;;
14603;SDS011;7388;51.078;13.740;2023-08-07T01:14:41;4.45;;;3.63;;
14603;SDS011;7388;51.078;13.740;2023-08-07T01:17:17;3.90;;;3.60;;
14603;SDS011;7388;51.078;13.740;2023-08-07T01:19:47;3.17;;;2.88;;
14603;SDS011;7388;51.078;13.740;2023-08-07T01:22:14;5.20;;;3.40;;
14603;SDS011;7388;51.078;13.740;2023-08-07T01:24:42;4.83;;;4.40;;
14603;SDS011;7388;51.078;13.740;2023-08-07T01:32:16;3.90;;;3.10;;
14603;SDS011;7388;51.078;13.740;2023-08-07T01:34:47;4.50;;;3.85;;
14603;SDS011;7388;51.078;13.740;2023-08-07T01:37:14;5.03;;;2.83;;
14603;SDS011;7388;51.078;13.740;2023-08-07T01:39:42;3.00;;;2.70;;
14603;SDS011;7388;51.078;13.740;2023-08-07T01:42:11;5.18;;;4.43;;
14603;SDS011;7388;51.078;13.740;2023-08-07T01:44:37;3.40;;;3.10;;
14603;SDS011;7388;51.078;13.740;2023-08-07T01:47:03;4.32;;;3.53;;
14603;SDS011;7388;51.078;13.740;2023-08-07T01:49:29;3.97;;;3.67;;
14603;SDS011;7388;51.078;13.740;2023-08-07T01:51:55;4.20;;;3.90;;
14603;SDS011;7388;51.078;13.740;2023-08-07T01:54:20;4.73;;;4.30;;
14603;SDS011;7388;51.078;13.740;2023-08-07T01:56:46;3.87;;;3.50;;
14603;SDS011;7388;51.078;13.740;2023-08-07T01:59:12;6.30;;;3.83;;
14603;SDS011;7388;51.078;13.740;2023-08-07T02:01:38;4.03;;;3.73;;
14603;SDS011;7388;51.078;13.740;2023-08-07T02:04:04;4.57;;;4.17;;
14603;SDS011;7388;51.078;13.740;2023-08-07T02:06:29;6.97;;;4.17;;
14603;SDS011;7388;51.078;13.740;2023-08-07T02:08:55;6.60;;;3.60;;
14603;SDS011;7388;51.078;13.740;2023-08-07T02:11:22;3.95;;;3.60;;
14603;SDS011;7388;51.078;13.740;2023-08-07T02:13:48;4.40;;;4.00;;
14603;SDS011;7388;51.078;13.740;2023-08-07T02:16:13;5.30;;;4.27;;
14603;SDS011;7388;51.078;13.740;2023-08-07T02:18:39;5.90;;;4.60;;
14603;SDS011;7388;51.078;13.740;2023-08-07T02:21:05;5.93;;;4.60;;
14603;SDS011;7388;51.078;13.740;2023-08-07T02:23:31;5.20;;;3.80;;
14603;SDS011;7388;51.078;13.740;2023-08-07T02:25:56;4.20;;;3.90;;
14603;SDS011;7388;51.078;13.740;2023-08-07T02:28:22;7.47;;;5.30;;
14603;SDS011;7388;51.078;13.740;2023-08-07T02:30:48;4.93;;;4.53;;
14603;SDS011;7388;51.078;13.740;2023-08-07T02:33:16;10.23;;;4.87;;
14603;SDS011;7388;51.078;13.740;2023-08-07T02:35:42;5.00;;;4.50;;
14603;SDS011;7388;51.078;13.740;2023-08-07T02:38:08;4.87;;;4.47;;
14603;SDS011;7388;51.078;13.740;2023-08-07T02:40:33;5.33;;;4.83;;
14603;SDS011;7388;51.078;13.740;2023-08-07T02:42:59;5.93;;;5.23;;
14603;SDS011;7388;51.078;13.740;2023-08-07T02:45:25;5.20;;;4.73;;
14603;SDS011;7388;51.078;13.740;2023-08-07T02:47:51;5.20;;;4.70;;
14603;SDS011;7388;51.078;13.740;2023-08-07T02:50:17;5.00;;;4.50;;
14603;SDS011;7388;51.078;13.740;2023-08-07T02:52:43;5.10;;;4.60;;
14603;SDS011;7388;51.078;13.740;2023-08-07T02:55:08;5.60;;;4.80;;
14603;SDS011;7388;51.078;13.740;2023-08-07T02:57:34;5.73;;;4.67;;
14603;SDS011;7388;51.078;13.740;2023-08-07T03:00:00;4.57;;;4.17;;
14603;SDS011;7388;51.078;13.740;2023-08-07T03:02:26;5.57;;;5.00;;
14603;SDS011;7388;51.078;13.740;2023-08-07T03:04:52;6.10;;;5.50;;
14603;SDS011;7388;51.078;13.740;2023-08-07T03:07:17;5.83;;;5.17;;
14603;SDS011;7388;51.078;13.740;2023-08-07T03:09:46;4.80;;;4.33;;
14603;SDS011;7388;51.078;13.740;2023-08-07T03:12:12;9.80;;;5.57;;
14603;SDS011;7388;51.078;13.740;2023-08-07T03:14:38;5.40;;;4.67;;
14603;SDS011;7388;51.078;13.740;2023-08-07T03:17:04;3.90;;;3.40;;
14603;SDS011;7388;51.078;13.740;2023-08-07T03:19:30;5.63;;;2.37;;
14603;SDS011;7388;51.078;13.740;2023-08-07T03:21:56;4.83;;;2.87;;
14603;SDS011;7388;51.078;13.740;2023-08-07T03:24:21;3.23;;;2.07;;
14603;SDS011;7388;51.078;13.740;2023-08-07T03:26:47;3.40;;;3.10;;
14603;SDS011;7388;51.078;13.740;2023-08-07T03:29:14;4.00;;;3.47;;
14603;SDS011;7388;51.078;13.740;2023-08-07T03:31:40;3.13;;;2.67;;
14603;SDS011;7388;51.078;13.740;2023-08-07T03:34:06;6.83;;;2.60;;
14603;SDS011;7388;51.078;13.740;2023-08-07T03:36:31;3.33;;;2.80;;
14603;SDS011;7388;51.078;13.740;2023-08-07T03:38:57;3.63;;;3.33;;
14603;SDS011;7388;51.078;13.740;2023-08-07T03:41:23;5.40;;;2.63;;
14603;SDS011;7388;51.078;13.740;2023-08-07T03:43:49;4.47;;;3.27;;
14603;SDS011;7388;51.078;13.740;2023-08-07T03:46:15;3.70;;;2.50;;
14603;SDS011;7388;51.078;13.740;2023-08-07T03:48:40;3.07;;;2.53;;
14603;SDS011;7388;51.078;13.740;2023-08-07T03:51:06;4.10;;;2.60;;
14603;SDS011;7388;51.078;13.740;2023-08-07T03:53:36;3.65;;;2.72;;
14603;SDS011;7388;51.078;13.740;2023-08-07T03:56:02;3.40;;;2.97;;
14603;SDS011;7388;51.078;13.740;2023-08-07T03:58:29;4.20;;;3.30;;
14603;SDS011;7388;51.078;13.740;2023-08-07T04:00:55;3.50;;;3.05;;
14603;SDS011;7388;51.078;13.740;2023-08-07T04:03:21;3.40;;;3.10;;
14603;SDS011;7388;51.078;13.740;2023-08-07T04:05:46;4.07;;;2.90;;
14603;SDS011;7388;51.078;13.740;2023-08-07T04:08:16;3.60;;;3.05;;
14603;SDS011;7388;51.078;13.740;2023-08-07T04:10:42;4.50;;;3.10;;
14603;SDS011;7388;51.078;13.740;2023-08-07T04:13:08;3.80;;;3.50;;
14603;SDS011;7388;51.078;13.740;2023-08-07T04:15:33;4.03;;;3.63;;
14603;SDS011;7388;51.078;13.740;2023-08-07T04:17:59;4.73;;;4.33;;
14603;SDS011;7388;51.078;13.740;2023-08-07T04:20:26;4.83;;;3.07;;
14603;SDS011;7388;51.078;13.740;2023-08-07T04:22:51;4.60;;;3.60;;
14603;SDS011;7388;51.078;13.740;2023-08-07T04:25:17;4.23;;;3.83;;
14603;SDS011;7388;51.078;13.740;2023-08-07T04:27:43;8.10;;;4.23;;
14603;SDS011;7388;51.078;13.740;2023-08-07T04:30:09;4.93;;;4.37;;
14603;SDS011;7388;51.078;13.740;2023-08-07T04:32:35;5.95;;;4.30;;
14603;SDS011;7388;51.078;13.740;2023-08-07T04:35:01;5.93;;;5.33;;
14603;SDS011;7388;51.078;13.740;2023-08-07T04:37:27;6.18;;;4.75;;
14603;SDS011;7388;51.078;13.740;2023-08-07T04:39:55;8.73;;;5.50;;
14603;SDS011;7388;51.078;13.740;2023-08-07T04:42:22;5.45;;;4.95;;
14603;SDS011;7388;51.078;13.740;2023-08-07T04:44:47;5.80;;;5.30;;
14603;SDS011;7388;51.078;13.740;2023-08-07T04:47:13;6.70;;;4.90;;
14603;SDS011;7388;51.078;13.740;2023-08-07T04:49:39;5.43;;;4.93;;
14603;SDS011;7388;51.078;13.740;2023-08-07T04:52:05;9.40;;;6.40;;
14603;SDS011;7388;51.078;13.740;2023-08-07T04:54:31;6.67;;;5.50;;
14603;SDS011;7388;51.078;13.740;2023-08-07T04:56:57;7.50;;;6.40;;
14603;SDS011;7388;51.078;13.740;2023-08-07T04:59:22;11.53;;;7.20;;
14603;SDS011;7388;51.078;13.740;2023-08-07T05:01:48;6.63;;;5.47;;
14603;SDS011;7388;51.078;13.740;2023-08-07T05:04:14;6.90;;;6.30;;
14603;SDS011;7388;51.078;13.740;2023-08-07T05:06:40;7.57;;;6.27;;
14603;SDS011;7388;51.078;13.740;2023-08-07T05:09:06;6.63;;;5.97;;
14603;SDS011;7388;51.078;13.740;2023-08-07T05:11:31;7.80;;;7.03;;
14603;SDS011;7388;51.078;13.740;2023-08-07T05:13:58;8.13;;;7.43;;
14603;SDS011;7388;51.078;13.740;2023-08-07T05:16:24;8.10;;;6.60;;
14603;SDS011;7388;51.078;13.740;2023-08-07T05:18:50;7.87;;;7.07;;
14603;SDS011;7388;51.078;13.740;2023-08-07T05:21:16;9.10;;;6.83;;
14603;SDS011;7388;51.078;13.740;2023-08-07T05:23:42;6.87;;;6.27;;
14603;SDS011;7388;51.078;13.740;2023-08-07T05:26:08;8.27;;;7.43;;
14603;SDS011;7388;51.078;13.740;2023-08-07T05:28:34;7.60;;;6.80;;
14603;SDS011;7388;51.078;13.740;2023-08-07T05:30:59;7.63;;;6.93;;
14603;SDS011;7388;51.078;13.740;2023-08-07T05:33:25;6.80;;;6.20;;
14603;SDS011;7388;51.078;13.740;2023-08-07T05:35:51;8.30;;;6.73;;
14603;SDS011;7388;51.078;13.740;2023-08-07T05:38:18;7.10;;;6.38;;
14603;SDS011;7388;51.078;13.740;2023-08-07T05:40:43;7.73;;;6.93;;
14603;SDS011;7388;51.078;13.740;2023-08-07T05:43:09;7.70;;;6.97;;
14603;SDS011;7388;51.078;13.740;2023-08-07T05:45:36;6.32;;;5.72;;
14603;SDS011;7388;51.078;13.740;2023-08-07T05:48:02;8.15;;;6.13;;
14603;SDS011;7388;51.078;13.740;2023-08-07T05:50:28;9.40;;;6.50;;
14603;SDS011;7388;51.078;13.740;2023-08-07T05:52:53;7.03;;;6.37;;
14603;SDS011;7388;51.078;13.740;2023-08-07T05:55:19;6.50;;;5.73;;
14603;SDS011;7388;51.078;13.740;2023-08-07T05:57:45;6.97;;;6.37;;
14603;SDS011;7388;51.078;13.740;2023-08-07T06:00:11;8.10;;;7.30;;
14603;SDS011;7388;51.078;13.740;2023-08-07T06:02:42;12.00;;;9.15;;
14603;SDS011;7388;51.078;13.740;2023-08-07T06:05:08;25.77;;;14.23;;
14603;SDS011;7388;51.078;13.740;2023-08-07T06:07:35;11.88;;;7.20;;
14603;SDS011;7388;51.078;13.740;2023-08-07T06:10:01;5.70;;;5.00;;
14603;SDS011;7388;51.078;13.740;2023-08-07T06:12:27;5.20;;;4.70;;
14603;SDS011;7388;51.078;13.740;2023-08-07T06:14:53;5.40;;;4.90;;
14603;SDS011;7388;51.078;13.740;2023-08-07T06:17:19;6.10;;;5.60;;
14603;SDS011;7388;51.078;13.740;2023-08-07T06:19:45;5.07;;;4.67;;
14603;SDS011;7388;51.078;13.740;2023-08-07T06:22:10;6.77;;;4.83;;
14603;SDS011;7388;51.078;13.740;2023-08-07T06:24:36;5.60;;;5.10;;
14603;SDS011;7388;51.078;13.740;2023-08-07T06:27:02;5.23;;;4.30;;
14603;SDS011;7388;51.078;13.740;2023-08-07T06:29:28;5.45;;;4.95;;
14603;SDS011;7388;51.078;13.740;2023-08-07T06:31:54;5.20;;;4.80;;
14603;SDS011;7388;51.078;13.740;2023-08-07T06:34:20;7.63;;;5.10;;
14603;SDS011;7388;51.078;13.740;2023-08-07T06:36:46;5.53;;;4.90;;
14603;SDS011;7388;51.078;13.740;2023-08-07T06:39:12;5.20;;;4.60;;
14603;SDS011;7388;51.078;13.740;2023-08-07T06:41:38;4.30;;;3.80;;
14603;SDS011;7388;51.078;13.740;2023-08-07T06:44:04;4.80;;;4.22;;
14603;SDS011;7388;51.078;13.740;2023-08-07T06:46:30;6.93;;;4.30;;
14603;SDS011;7388;51.078;13.740;2023-08-07T06:48:56;9.93;;;4.90;;
14603;SDS011;7388;51.078;13.740;2023-08-07T06:51:22;5.93;;;4.13;;
14603;SDS011;7388;51.078;13.740;2023-08-07T06:53:47;12.90;;;4.20;;
14603;SDS011;7388;51.078;13.740;2023-08-07T06:56:13;4.20;;;3.63;;
14603;SDS011;7388;51.078;13.740;2023-08-07T06:58:39;4.70;;;4.30;;
14603;SDS011;7388;51.078;13.740;2023-08-07T07:01:05;4.97;;;4.47;;
14603;SDS011;7388;51.078;13.740;2023-08-07T07:03:31;5.68;;;5.18;;
14603;SDS011;7388;51.078;13.740;2023-08-07T07:05:57;6.10;;;3.97;;
14603;SDS011;7388;51.078;13.740;2023-08-07T07:08:22;4.33;;;3.93;;
14603;SDS011;7388;51.078;13.740;2023-08-07T07:10:48;3.20;;;2.80;;
14603;SDS011;7388;51.078;13.740;2023-08-07T07:13:14;7.10;;;4.00;;
14603;SDS011;7388;51.078;13.740;2023-08-07T07:15:40;6.80;;;4.10;;
14603;SDS011;7388;51.078;13.740;2023-08-07T07:18:06;4.50;;;3.50;;
14603;SDS011;7388;51.078;13.740;2023-08-07T07:20:32;4.57;;;3.57;;
14603;SDS011;7388;51.078;13.740;2023-08-07T07:22:58;4.30;;;3.40;;
14603;SDS011;7388;51.078;13.740;2023-08-07T07:25:24;4.40;;;2.90;;
14603;SDS011;7388;51.078;13.740;2023-08-07T07:27:50;4.00;;;3.27;;
14603;SDS011;7388;51.078;13.740;2023-08-07T07:30:16;3.60;;;3.30;;
14603;SDS011;7388;51.078;13.740;2023-08-07T07:32:42;4.80;;;3.57;;
14603;SDS011;7388;51.078;13.740;2023-08-07T07:35:08;6.73;;;4.60;;
14603;SDS011;7388;51.078;13.740;2023-08-07T07:37:34;3.70;;;3.30;;
14603;SDS011;7388;51.078;13.740;2023-08-07T07:40:00;3.23;;;2.93;;
14603;SDS011;7388;51.078;13.740;2023-08-07T07:42:25;5.60;;;3.53;;
14603;SDS011;7388;51.078;13.740;2023-08-07T07:44:51;4.10;;;3.13;;
14603;SDS011;7388;51.078;13.740;2023-08-07T07:47:17;3.43;;;2.60;;
14603;SDS011;7388;51.078;13.740;2023-08-07T07:49:44;5.90;;;2.87;;
14603;SDS011;7388;51.078;13.740;2023-08-07T07:52:14;3.33;;;2.50;;
14603;SDS011;7388;51.078;13.740;2023-08-07T07:54:40;5.82;;;2.55;;
14603;SDS011;7388;51.078;13.740;2023-08-07T07:57:06;4.27;;;2.93;;
14603;SDS011;7388;51.078;13.740;2023-08-07T07:59:32;4.43;;;2.87;;
14603;SDS011;7388;51.078;13.740;2023-08-07T08:01:58;3.27;;;2.97;;
14603;SDS011;7388;51.078;13.740;2023-08-07T08:04:23;3.00;;;2.27;;
14603;SDS011;7388;51.078;13.740;2023-08-07T08:06:49;2.90;;;2.57;;
14603;SDS011;7388;51.078;13.740;2023-08-07T08:09:15;3.10;;;2.67;;
14603;SDS011;7388;51.078;13.740;2023-08-07T08:11:41;3.80;;;2.03;;
14603;SDS011;7388;51.078;13.740;2023-08-07T08:14:07;2.67;;;2.20;;
14603;SDS011;7388;51.078;13.740;2023-08-07T08:16:32;4.27;;;1.77;;
14603;SDS011;7388;51.078;13.740;2023-08-07T08:18:58;2.83;;;1.93;;
14603;SDS011;7388;51.078;13.740;2023-08-07T08:21:24;2.63;;;1.80;;
14603;SDS011;7388;51.078;13.740;2023-08-07T08:23:50;2.43;;;1.50;;
14603;SDS011;7388;51.078;13.740;2023-08-07T08:26:15;2.77;;;1.90;;
14603;SDS011;7388;51.078;13.740;2023-08-07T08:28:41;3.10;;;2.30;;
14603;SDS011;7388;51.078;13.740;2023-08-07T08:31:07;3.03;;;2.10;;
14603;SDS011;7388;51.078;13.740;2023-08-07T08:33:33;3.40;;;3.10;;
14603;SDS011;7388;51.078;13.740;2023-08-07T08:35:59;3.23;;;2.07;;
14603;SDS011;7388;51.078;13.740;2023-08-07T08:38:25;2.90;;;2.23;;
14603;SDS011;7388;51.078;13.740;2023-08-07T08:40:57;3.30;;;2.40;;
14603;SDS011;7388;51.078;13.740;2023-08-07T08:43:27;4.03;;;2.30;;
14603;SDS011;7388;51.078;13.740;2023-08-07T08:45:57;2.80;;;2.43;;
14603;SDS011;7388;51.078;13.740;2023-08-07T08:48:24;4.37;;;2.30;;
14603;SDS011;7388;51.078;13.740;2023-08-07T08:50:50;2.30;;;1.97;;
14603;SDS011;7388;51.078;13.740;2023-08-07T08:53:17;4.50;;;1.97;;
14603;SDS011;7388;51.078;13.740;2023-08-07T08:55:45;2.27;;;1.80;;
14603;SDS011;7388;51.078;13.740;2023-08-07T08:58:15;2.07;;;1.70;;
14603;SDS011;7388;51.078;13.740;2023-08-07T09:00:42;2.93;;;1.80;;
14603;SDS011;7388;51.078;13.740;2023-08-07T09:03:09;3.07;;;1.70;;
14603;SDS011;7388;51.078;13.740;2023-08-07T09:05:35;2.70;;;1.80;;
14603;SDS011;7388;51.078;13.740;2023-08-07T09:08:02;11.30;;;1.90;;
14603;SDS011;7388;51.078;13.740;2023-08-07T09:10:29;2.03;;;1.83;;
14603;SDS011;7388;51.078;13.740;2023-08-07T09:13:02;3.73;;;1.90;;
14603;SDS011;7388;51.078;13.740;2023-08-07T09:15:31;3.23;;;1.60;;
14603;SDS011;7388;51.078;13.740;2023-08-07T09:17:58;3.70;;;1.40;;
14603;SDS011;7388;51.078;13.740;2023-08-07T09:20:24;2.47;;;1.63;;
14603;SDS011;7388;51.078;13.740;2023-08-07T09:22:51;3.23;;;1.40;;
14603;SDS011;7388;51.078;13.740;2023-08-07T09:25:34;2.50;;;1.90;;
14603;SDS011;7388;51.078;13.740;2023-08-07T09:28:01;3.53;;;1.60;;
14603;SDS011;7388;51.078;13.740;2023-08-07T09:30:34;2.10;;;1.60;;
14603;SDS011;7388;51.078;13.740;2023-08-07T09:33:02;3.30;;;1.30;;
14603;SDS011;7388;51.078;13.740;2023-08-07T09:35:29;12.63;;;1.87;;
14603;SDS011;7388;51.078;13.740;2023-08-07T09:37:57;3.13;;;1.67;;
14603;SDS011;7388;51.078;13.740;2023-08-07T09:40:23;2.03;;;1.63;;
14603;SDS011;7388;51.078;13.740;2023-08-07T09:42:52;3.37;;;1.70;;
14603;SDS011;7388;51.078;13.740;2023-08-07T09:47:58;2.70;;;1.83;;
14603;SDS011;7388;51.078;13.740;2023-08-07T09:50:25;2.90;;;1.83;;
14603;SDS011;7388;51.078;13.740;2023-08-07T09:52:52;3.73;;;1.73;;
14603;SDS011;7388;51.078;13.740;2023-08-07T09:55:18;3.53;;;1.57;;
14603;SDS011;7388;51.078;13.740;2023-08-07T09:57:44;1.80;;;1.37;;
14603;SDS011;7388;51.078;13.740;2023-08-07T10:00:11;2.17;;;1.47;;
14603;SDS011;7388;51.078;13.740;2023-08-07T10:02:39;2.30;;;1.57;;
14603;SDS011;7388;51.078;13.740;2023-08-07T10:05:05;2.20;;;1.60;;
14603;SDS011;7388;51.078;13.740;2023-08-07T10:07:33;4.27;;;1.50;;
14603;SDS011;7388;51.078;13.740;2023-08-07T10:09:59;5.73;;;1.53;;
14603;SDS011;7388;51.078;13.740;2023-08-07T10:12:28;2.17;;;1.33;;
14603;SDS011;7388;51.078;13.740;2023-08-07T10:14:54;1.97;;;1.03;;
14603;SDS011;7388;51.078;13.740;2023-08-07T10:17:21;3.10;;;1.73;;
14603;SDS011;7388;51.078;13.740;2023-08-07T10:19:48;2.83;;;1.20;;
14603;SDS011;7388;51.078;13.740;2023-08-07T10:22:15;3.13;;;1.87;;
14603;SDS011;7388;51.078;13.740;2023-08-07T10:24:42;1.60;;;0.97;;
14603;SDS011;7388;51.078;13.740;2023-08-07T10:27:09;4.07;;;1.50;;
14603;SDS011;7388;51.078;13.740;2023-08-07T10:29:37;3.07;;;1.77;;
14603;SDS011;7388;51.078;13.740;2023-08-07T10:32:05;2.27;;;1.30;;
14603;SDS011;7388;51.078;13.740;2023-08-07T10:34:33;3.90;;;1.17;;
14603;SDS011;7388;51.078;13.740;2023-08-07T10:36:59;2.73;;;2.00;;
14603;SDS011;7388;51.078;13.740;2023-08-07T10:39:25;2.27;;;1.23;;
14603;SDS011;7388;51.078;13.740;2023-08-07T10:41:55;1.90;;;1.20;;
14603;SDS011;7388;51.078;13.740;2023-08-07T10:44:21;2.03;;;1.40;;
14603;SDS011;7388;51.078;13.740;2023-08-07T10:46:51;1.90;;;1.30;;
14603;SDS011;7388;51.078;13.740;2023-08-07T10:49:34;1.93;;;1.50;;
14603;SDS011;7388;51.078;13.740;2023-08-07T10:52:14;3.23;;;1.83;;
14603;SDS011;7388;51.078;13.740;2023-08-07T10:54:47;2.10;;;1.70;;
14603;SDS011;7388;51.078;13.740;2023-08-07T10:57:15;2.10;;;1.40;;
14603;SDS011;7388;51.078;13.740;2023-08-07T11:00:01;1.97;;;1.63;;
14603;SDS011;7388;51.078;13.740;2023-08-07T11:02:30;2.73;;;1.60;;
14603;SDS011;7388;51.078;13.740;2023-08-07T11:04:58;1.93;;;1.73;;
14603;SDS011;7388;51.078;13.740;2023-08-07T11:07:27;4.10;;;1.63;;
14603;SDS011;7388;51.078;13.740;2023-08-07T11:09:55;1.87;;;1.47;;
14603;SDS011;7388;51.078;13.740;2023-08-07T11:12:25;7.83;;;1.90;;
14603;SDS011;7388;51.078;13.740;2023-08-07T11:14:51;2.20;;;1.63;;
14603;SDS011;7388;51.078;13.740;2023-08-07T11:17:24;2.10;;;1.60;;
14603;SDS011;7388;51.078;13.740;2023-08-07T11:19:51;2.60;;;1.70;;
14603;SDS011;7388;51.078;13.740;2023-08-07T11:22:19;2.03;;;1.30;;
14603;SDS011;7388;51.078;13.740;2023-08-07T11:24:45;2.10;;;1.33;;
14603;SDS011;7388;51.078;13.740;2023-08-07T11:27:12;2.33;;;1.30;;
14603;SDS011;7388;51.078;13.740;2023-08-07T11:29:38;3.30;;;1.10;;
14603;SDS011;7388;51.078;13.740;2023-08-07T11:32:04;1.77;;;1.17;;
14603;SDS011;7388;51.078;13.740;2023-08-07T11:34:30;2.57;;;1.30;;
14603;SDS011;7388;51.078;13.740;2023-08-07T11:36:57;3.67;;;1.70;;
14603;SDS011;7388;51.078;13.740;2023-08-07T11:39:23;6.63;;;1.97;;
14603;SDS011;7388;51.078;13.740;2023-08-07T11:41:50;2.80;;;1.97;;
14603;SDS011;7388;51.078;13.740;2023-08-07T11:44:17;3.73;;;2.07;;
14603;SDS011;7388;51.078;13.740;2023-08-07T11:46:44;3.40;;;1.87;;
14603;SDS011;7388;51.078;13.740;2023-08-07T11:49:10;6.93;;;2.00;;
14603;SDS011;7388;51.078;13.740;2023-08-07T11:51:37;3.43;;;2.20;;
14603;SDS011;7388;51.078;13.740;2023-08-07T11:54:03;3.20;;;2.10;;
14603;SDS011;7388;51.078;13.740;2023-08-07T11:56:29;2.60;;;2.10;;
14603;SDS011;7388;51.078;13.740;2023-08-07T11:58:56;3.37;;;2.43;;
14603;SDS011;7388;51.078;13.740;2023-08-07T12:01:23;6.07;;;2.10;;
14603;SDS011;7388;51.078;13.740;2023-08-07T12:06:55;3.00;;;1.63;;
14603;SDS011;7388;51.078;13.740;2023-08-07T12:09:21;2.57;;;1.80;;
14603;SDS011;7388;51.078;13.740;2023-08-07T12:11:47;4.43;;;2.10;;
14603;SDS011;7388;51.078;13.740;2023-08-07T12:14:13;5.00;;;2.17;;
14603;SDS011;7388;51.078;13.740;2023-08-07T12:16:43;2.87;;;2.00;;
14603;SDS011;7388;51.078;13.740;2023-08-07T12:19:12;3.60;;;2.07;;
14603;SDS011;7388;51.078;13.740;2023-08-07T12:21:40;2.70;;;1.67;;
14603;SDS011;7388;51.078;13.740;2023-08-07T12:24:06;2.27;;;1.53;;
14603;SDS011;7388;51.078;13.740;2023-08-07T12:26:33;2.47;;;1.50;;
14603;SDS011;7388;51.078;13.740;2023-08-07T12:28:58;2.87;;;1.70;;
14603;SDS011;7388;51.078;13.740;2023-08-07T12:31:24;2.40;;;1.83;;
14603;SDS011;7388;51.078;13.740;2023-08-07T12:33:50;5.30;;;1.30;;
14603;SDS011;7388;51.078;13.740;2023-08-07T12:36:16;3.30;;;1.30;;
14603;SDS011;7388;51.078;13.740;2023-08-07T12:38:42;1.90;;;0.87;;
14603;SDS011;7388;51.078;13.740;2023-08-07T12:41:07;5.90;;;1.00;;
14603;SDS011;7388;51.078;13.740;2023-08-07T12:43:33;2.53;;;1.30;;
14603;SDS011;7388;51.078;13.740;2023-08-07T12:45:59;1.87;;;1.13;;
14603;SDS011;7388;51.078;13.740;2023-08-07T12:48:25;2.50;;;1.40;;
14603;SDS011;7388;51.078;13.740;2023-08-07T12:50:53;1.87;;;1.30;;
14603;SDS011;7388;51.078;13.740;2023-08-07T12:53:19;2.00;;;1.40;;
14603;SDS011;7388;51.078;13.740;2023-08-07T12:55:45;1.57;;;1.10;;
14603;SDS011;7388;51.078;13.740;2023-08-07T12:58:11;2.90;;;1.30;;
14603;SDS011;7388;51.078;13.740;2023-08-07T13:00:36;1.60;;;1.10;;
14603;SDS011;7388;51.078;13.740;2023-08-07T13:03:02;2.43;;;1.27;;
14603;SDS011;7388;51.078;13.740;2023-08-07T13:05:28;4.27;;;1.53;;
14603;SDS011;7388;51.078;13.740;2023-08-07T13:07:57;2.40;;;1.63;;
14603;SDS011;7388;51.078;13.740;2023-08-07T13:10:23;2.40;;;1.50;;
14603;SDS011;7388;51.078;13.740;2023-08-07T13:12:53;2.30;;;1.50;;
14603;SDS011;7388;51.078;13.740;2023-08-07T13:15:19;2.23;;;1.10;;
14603;SDS011;7388;51.078;13.740;2023-08-07T13:17:45;2.33;;;1.60;;
14603;SDS011;7388;51.078;13.740;2023-08-07T13:20:12;2.20;;;1.30;;
14603;SDS011;7388;51.078;13.740;2023-08-07T13:22:39;2.13;;;1.57;;
14603;SDS011;7388;51.078;13.740;2023-08-07T13:25:07;2.70;;;1.17;;
14603;SDS011;7388;51.078;13.740;2023-08-07T13:27:34;2.70;;;1.13;;
14603;SDS011;7388;51.078;13.740;2023-08-07T13:30:00;2.97;;;1.23;;
14603;SDS011;7388;51.078;13.740;2023-08-07T13:32:26;2.07;;;1.20;;
14603;SDS011;7388;51.078;13.740;2023-08-07T13:34:53;2.03;;;1.13;;
14603;SDS011;7388;51.078;13.740;2023-08-07T13:37:19;1.30;;;0.67;;
14603;SDS011;7388;51.078;13.740;2023-08-07T13:39:45;2.43;;;1.00;;
14603;SDS011;7388;51.078;13.740;2023-08-07T13:42:14;1.70;;;0.90;;
14603;SDS011;7388;51.078;13.740;2023-08-07T13:44:40;2.60;;;0.80;;
14603;SDS011;7388;51.078;13.740;2023-08-07T13:47:06;1.10;;;0.60;;
14603;SDS011;7388;51.078;13.740;2023-08-07T13:49:32;5.20;;;1.47;;
14603;SDS011;7388;51.078;13.740;2023-08-07T13:51:59;3.27;;;1.00;;
14603;SDS011;7388;51.078;13.740;2023-08-07T13:54:25;1.53;;;0.80;;
14603;SDS011;7388;51.078;13.740;2023-08-07T13:56:50;2.70;;;1.10;;
14603;SDS011;7388;51.078;13.740;2023-08-07T13:59:16;3.43;;;1.20;;
14603;SDS011;7388;51.078;13.740;2023-08-07T14:01:42;2.10;;;1.10;;
14603;SDS011;7388;51.078;13.740;2023-08-07T14:04:08;1.83;;;0.97;;
14603;SDS011;7388;51.078;13.740;2023-08-07T14:06:34;3.53;;;1.57;;
14603;SDS011;7388;51.078;13.740;2023-08-07T14:09:00;2.87;;;1.70;;
14603;SDS011;7388;51.078;13.740;2023-08-07T14:11:26;3.07;;;2.23;;
14603;SDS011;7388;51.078;13.740;2023-08-07T14:13:58;2.30;;;1.57;;
14603;SDS011;7388;51.078;13.740;2023-08-07T14:16:24;3.70;;;1.47;;
14603;SDS011;7388;51.078;13.740;2023-08-07T14:18:50;1.73;;;1.20;;
14603;SDS011;7388;51.078;13.740;2023-08-07T14:21:16;3.33;;;1.50;;
14603;SDS011;7388;51.078;13.740;2023-08-07T14:23:42;2.17;;;1.53;;
14603;SDS011;7388;51.078;13.740;2023-08-07T14:26:10;2.70;;;1.50;;
14603;SDS011;7388;51.078;13.740;2023-08-07T14:28:37;2.33;;;1.57;;
14603;SDS011;7388;51.078;13.740;2023-08-07T14:31:06;2.30;;;1.50;;
14603;SDS011;7388;51.078;13.740;2023-08-07T14:33:33;1.83;;;1.30;;
14603;SDS011;7388;51.078;13.740;2023-08-07T14:35:59;4.70;;;1.63;;
14603;SDS011;7388;51.078;13.740;2023-08-07T14:38:25;4.27;;;1.13;;
14603;SDS011;7388;51.078;13.740;2023-08-07T14:40:51;1.80;;;0.90;;
14603;SDS011;7388;51.078;13.740;2023-08-07T14:43:17;2.33;;;1.20;;
14603;SDS011;7388;51.078;13.740;2023-08-07T14:45:43;2.50;;;1.53;;
14603;SDS011;7388;51.078;13.740;2023-08-07T14:48:09;3.50;;;1.40;;
14603;SDS011;7388;51.078;13.740;2023-08-07T14:50:35;2.07;;;1.60;;
14603;SDS011;7388;51.078;13.740;2023-08-07T14:53:01;1.53;;;1.07;;
14603;SDS011;7388;51.078;13.740;2023-08-07T14:55:27;7.40;;;1.93;;